sensor_id;sensor_type;location;lat;lon;timestamp;P1;durP1;ratioP1;P2;durP2;ratioP2
14734;SDS011;7458;49.002;8.472;2023-07-13T00:02:24;1018.35;;;845.47;;
14734;SDS011;7458;49.002;8.472;2023-07-13T00:04:51;1021.70;;;861.50;;
14734;SDS011;7458;49.002;8.472;2023-07-13T00:07:17;1018.90;;;851.17;;
14734;SDS011;7458;49.002;8.472;2023-07-13T00:09:46;1026.25;;;902.90;;
14734;SDS011;7458;49.002;8.472;2023-07-13T00:12:23;1025.45;;;888.67;;
14734;SDS011;7458;49.002;8.472;2023-07-13T00:14:56;1023.78;;;890.47;;
14734;SDS011;7458;49.002;8.472;2023-07-13T00:17:25;1020.38;;;843.05;;
14734;SDS011;7458;49.002;8.472;2023-07-13T00:19:53;1024.25;;;838.58;;
14734;SDS011;7458;49.002;8.472;2023-07-13T00:22:20;1022.53;;;889.13;;
14734;SDS011;7458;49.002;8.472;2023-07-13T00:24:49;1026.78;;;897.88;;
14734;SDS011;7458;49.002;8.472;2023-07-13T00:27:16;1023.40;;;893.80;;
14734;SDS011;7458;49.002;8.472;2023-07-13T00:29:42;1026.80;;;839.17;;
14734;SDS011;7458;49.002;8.472;2023-07-13T00:32:09;1027.72;;;856.88;;
14734;SDS011;7458;49.002;8.472;2023-07-13T00:34:36;1022.78;;;898.50;;
14734;SDS011;7458;49.002;8.472;2023-07-13T00:37:04;1038.53;;;831.00;;
14734;SDS011;7458;49.002;8.472;2023-07-13T00:39:32;1025.82;;;893.70;;
14734;SDS011;7458;49.002;8.472;2023-07-13T00:41:59;1032.22;;;845.38;;
14734;SDS011;7458;49.002;8.472;2023-07-13T00:44:26;1027.78;;;852.95;;
14734;SDS011;7458;49.002;8.472;2023-07-13T00:46:52;1020.42;;;881.28;;
14734;SDS011;7458;49.002;8.472;2023-07-13T00:49:19;1020.17;;;889.25;;
14734;SDS011;7458;49.002;8.472;2023-07-13T00:51:55;1016.58;;;850.97;;
14734;SDS011;7458;49.002;8.472;2023-07-13T00:54:29;1018.00;;;852.35;;
14734;SDS011;7458;49.002;8.472;2023-07-13T00:57:02;1021.43;;;857.93;;
14734;SDS011;7458;49.002;8.472;2023-07-13T00:59:33;1028.18;;;899.78;;
14734;SDS011;7458;49.002;8.472;2023-07-13T01:02:03;1036.07;;;908.58;;
14734;SDS011;7458;49.002;8.472;2023-07-13T01:04:29;1035.20;;;867.65;;
14734;SDS011;7458;49.002;8.472;2023-07-13T01:06:55;1030.00;;;890.33;;
14734;SDS011;7458;49.002;8.472;2023-07-13T01:09:23;1031.60;;;891.90;;
14734;SDS011;7458;49.002;8.472;2023-07-13T01:11:50;1022.13;;;888.60;;
14734;SDS011;7458;49.002;8.472;2023-07-13T01:14:16;1019.30;;;846.90;;
14734;SDS011;7458;49.002;8.472;2023-07-13T01:16:44;1021.17;;;852.83;;
14734;SDS011;7458;49.002;8.472;2023-07-13T01:19:16;1024.07;;;891.15;;
14734;SDS011;7458;49.002;8.472;2023-07-13T01:22:06;1023.08;;;891.63;;
14734;SDS011;7458;49.002;8.472;2023-07-13T01:24:36;1019.70;;;886.25;;
14734;SDS011;7458;49.002;8.472;2023-07-13T01:27:05;1008.80;;;855.70;;
14734;SDS011;7458;49.002;8.472;2023-07-13T01:29:35;1006.20;;;853.50;;
14734;SDS011;7458;49.002;8.472;2023-07-13T01:32:12;1001.03;;;840.53;;
14734;SDS011;7458;49.002;8.472;2023-07-13T01:34:49;1009.38;;;881.97;;
14734;SDS011;7458;49.002;8.472;2023-07-13T01:37:16;1004.25;;;893.30;;
14734;SDS011;7458;49.002;8.472;2023-07-13T01:39:42;1004.00;;;876.53;;
14734;SDS011;7458;49.002;8.472;2023-07-13T01:42:08;999.92;;;872.47;;
14734;SDS011;7458;49.002;8.472;2023-07-13T01:44:34;985.83;;;824.05;;
14734;SDS011;7458;49.002;8.472;2023-07-13T01:47:00;1011.67;;;883.30;;
14734;SDS011;7458;49.002;8.472;2023-07-13T01:49:26;1032.97;;;879.65;;
14734;SDS011;7458;49.002;8.472;2023-07-13T01:51:52;1078.88;;;881.72;;
14734;SDS011;7458;49.002;8.472;2023-07-13T01:54:17;1143.22;;;814.42;;
14734;SDS011;7458;49.002;8.472;2023-07-13T01:56:43;1096.80;;;884.25;;
14734;SDS011;7458;49.002;8.472;2023-07-13T01:59:09;1089.68;;;880.58;;
14734;SDS011;7458;49.002;8.472;2023-07-13T02:01:35;1135.15;;;817.97;;
14734;SDS011;7458;49.002;8.472;2023-07-13T02:04:02;1130.90;;;817.88;;
14734;SDS011;7458;49.002;8.472;2023-07-13T02:06:28;1077.13;;;883.25;;
14734;SDS011;7458;49.002;8.472;2023-07-13T02:08:54;1072.53;;;884.42;;
14734;SDS011;7458;49.002;8.472;2023-07-13T02:11:20;1061.60;;;876.55;;
14734;SDS011;7458;49.002;8.472;2023-07-13T02:13:46;1106.75;;;819.95;;
14734;SDS011;7458;49.002;8.472;2023-07-13T02:16:12;1081.80;;;901.90;;
14734;SDS011;7458;49.002;8.472;2023-07-13T02:18:38;1070.78;;;888.72;;
14734;SDS011;7458;49.002;8.472;2023-07-13T02:21:04;1065.50;;;904.33;;
14734;SDS011;7458;49.002;8.472;2023-07-13T02:23:29;1049.50;;;893.00;;
14734;SDS011;7458;49.002;8.472;2023-07-13T02:25:56;1025.75;;;833.05;;
14734;SDS011;7458;49.002;8.472;2023-07-13T02:28:23;1002.60;;;839.33;;
14734;SDS011;7458;49.002;8.472;2023-07-13T02:30:49;1011.88;;;836.28;;
14734;SDS011;7458;49.002;8.472;2023-07-13T02:33:15;1035.70;;;824.67;;
14734;SDS011;7458;49.002;8.472;2023-07-13T02:35:41;1027.82;;;816.95;;
14734;SDS011;7458;49.002;8.472;2023-07-13T02:38:07;1005.38;;;885.50;;
14734;SDS011;7458;49.002;8.472;2023-07-13T02:40:33;1026.13;;;825.20;;
14734;SDS011;7458;49.002;8.472;2023-07-13T02:43:00;1021.67;;;819.03;;
14734;SDS011;7458;49.002;8.472;2023-07-13T02:45:27;1001.63;;;890.15;;
14734;SDS011;7458;49.002;8.472;2023-07-13T02:47:53;1017.70;;;814.67;;
14734;SDS011;7458;49.002;8.472;2023-07-13T02:50:19;1011.83;;;818.95;;
14734;SDS011;7458;49.002;8.472;2023-07-13T02:52:45;1011.05;;;826.38;;
14734;SDS011;7458;49.002;8.472;2023-07-13T02:55:11;998.83;;;886.88;;
14734;SDS011;7458;49.002;8.472;2023-07-13T02:57:37;1023.03;;;821.95;;
14734;SDS011;7458;49.002;8.472;2023-07-13T03:00:04;1002.55;;;889.95;;
14734;SDS011;7458;49.002;8.472;2023-07-13T03:02:31;1006.05;;;895.15;;
14734;SDS011;7458;49.002;8.472;2023-07-13T03:04:58;1018.63;;;906.65;;
14734;SDS011;7458;49.002;8.472;2023-07-13T03:07:24;1006.33;;;895.35;;
14734;SDS011;7458;49.002;8.472;2023-07-13T03:09:54;1018.38;;;843.95;;
14734;SDS011;7458;49.002;8.472;2023-07-13T03:12:22;1008.28;;;837.88;;
14734;SDS011;7458;49.002;8.472;2023-07-13T03:14:48;1009.80;;;839.20;;
14734;SDS011;7458;49.002;8.472;2023-07-13T03:17:14;1004.30;;;894.15;;
14734;SDS011;7458;49.002;8.472;2023-07-13T03:19:40;1019.25;;;908.45;;
14734;SDS011;7458;49.002;8.472;2023-07-13T03:22:06;1000.75;;;851.60;;
14734;SDS011;7458;49.002;8.472;2023-07-13T03:24:32;992.38;;;847.63;;
14734;SDS011;7458;49.002;8.472;2023-07-13T03:27:00;987.65;;;852.20;;
14734;SDS011;7458;49.002;8.472;2023-07-13T03:29:28;986.85;;;859.03;;
14734;SDS011;7458;49.002;8.472;2023-07-13T03:31:54;1009.90;;;900.35;;
14734;SDS011;7458;49.002;8.472;2023-07-13T03:34:20;989.63;;;846.10;;
14734;SDS011;7458;49.002;8.472;2023-07-13T03:36:46;1009.90;;;898.63;;
14734;SDS011;7458;49.002;8.472;2023-07-13T03:39:12;1019.55;;;907.40;;
14734;SDS011;7458;49.002;8.472;2023-07-13T03:41:38;1017.42;;;904.45;;
14734;SDS011;7458;49.002;8.472;2023-07-13T03:44:03;1028.82;;;849.55;;
14734;SDS011;7458;49.002;8.472;2023-07-13T03:46:30;1018.13;;;905.33;;
14734;SDS011;7458;49.002;8.472;2023-07-13T03:48:56;1017.53;;;839.22;;
14734;SDS011;7458;49.002;8.472;2023-07-13T03:51:22;1020.15;;;831.30;;
14734;SDS011;7458;49.002;8.472;2023-07-13T03:53:49;1019.45;;;909.33;;
14734;SDS011;7458;49.002;8.472;2023-07-13T03:56:15;1015.72;;;904.88;;
14734;SDS011;7458;49.002;8.472;2023-07-13T03:58:44;1014.45;;;904.05;;
14734;SDS011;7458;49.002;8.472;2023-07-13T04:01:13;1019.78;;;855.10;;
14734;SDS011;7458;49.002;8.472;2023-07-13T04:03:41;1015.65;;;905.25;;
14734;SDS011;7458;49.002;8.472;2023-07-13T04:06:08;1011.55;;;900.88;;
14734;SDS011;7458;49.002;8.472;2023-07-13T04:08:46;1006.42;;;896.08;;
14734;SDS011;7458;49.002;8.472;2023-07-13T04:11:15;1022.20;;;911.28;;
14734;SDS011;7458;49.002;8.472;2023-07-13T04:13:42;1016.40;;;839.67;;
14734;SDS011;7458;49.002;8.472;2023-07-13T04:16:08;1010.03;;;835.70;;
14734;SDS011;7458;49.002;8.472;2023-07-13T04:18:34;1005.95;;;896.83;;
14734;SDS011;7458;49.002;8.472;2023-07-13T04:21:01;1011.97;;;902.47;;
14734;SDS011;7458;49.002;8.472;2023-07-13T04:23:26;992.92;;;832.30;;
14734;SDS011;7458;49.002;8.472;2023-07-13T04:25:52;994.58;;;843.25;;
14734;SDS011;7458;49.002;8.472;2023-07-13T04:28:19;1015.10;;;907.25;;
14734;SDS011;7458;49.002;8.472;2023-07-13T04:30:47;993.30;;;852.15;;
14734;SDS011;7458;49.002;8.472;2023-07-13T04:33:14;1004.38;;;897.35;;
14734;SDS011;7458;49.002;8.472;2023-07-13T04:35:42;1008.97;;;901.72;;
14734;SDS011;7458;49.002;8.472;2023-07-13T04:38:11;982.55;;;876.40;;
14734;SDS011;7458;49.002;8.472;2023-07-13T04:40:38;979.08;;;833.45;;
14734;SDS011;7458;49.002;8.472;2023-07-13T04:43:03;968.17;;;846.10;;
14734;SDS011;7458;49.002;8.472;2023-07-13T04:45:29;965.55;;;834.28;;
14734;SDS011;7458;49.002;8.472;2023-07-13T04:47:56;966.78;;;845.63;;
14734;SDS011;7458;49.002;8.472;2023-07-13T04:50:22;966.80;;;849.08;;
14734;SDS011;7458;49.002;8.472;2023-07-13T04:52:51;965.80;;;841.60;;
14734;SDS011;7458;49.002;8.472;2023-07-13T04:55:18;1002.50;;;824.38;;
14734;SDS011;7458;49.002;8.472;2023-07-13T04:57:45;1006.78;;;842.60;;
14734;SDS011;7458;49.002;8.472;2023-07-13T05:00:11;993.08;;;881.70;;
14734;SDS011;7458;49.002;8.472;2023-07-13T05:02:40;986.75;;;871.08;;
14734;SDS011;7458;49.002;8.472;2023-07-13T05:05:10;1003.60;;;850.45;;
14734;SDS011;7458;49.002;8.472;2023-07-13T05:07:36;1003.58;;;850.65;;
14734;SDS011;7458;49.002;8.472;2023-07-13T05:10:02;1020.25;;;860.35;;
14734;SDS011;7458;49.002;8.472;2023-07-13T05:12:29;999.67;;;847.47;;
14734;SDS011;7458;49.002;8.472;2023-07-13T05:14:55;997.63;;;877.15;;
14734;SDS011;7458;49.002;8.472;2023-07-13T05:17:21;1006.67;;;892.83;;
14734;SDS011;7458;49.002;8.472;2023-07-13T05:19:47;1008.67;;;893.22;;
14734;SDS011;7458;49.002;8.472;2023-07-13T05:22:13;1008.63;;;848.58;;
14734;SDS011;7458;49.002;8.472;2023-07-13T05:24:39;1006.42;;;850.92;;
14734;SDS011;7458;49.002;8.472;2023-07-13T05:27:04;992.75;;;872.35;;
14734;SDS011;7458;49.002;8.472;2023-07-13T05:29:30;996.40;;;887.58;;
14734;SDS011;7458;49.002;8.472;2023-07-13T05:31:56;1011.22;;;878.80;;
14734;SDS011;7458;49.002;8.472;2023-07-13T05:34:22;1004.33;;;835.75;;
14734;SDS011;7458;49.002;8.472;2023-07-13T05:36:48;1023.85;;;845.17;;
14734;SDS011;7458;49.002;8.472;2023-07-13T05:39:15;1020.80;;;835.78;;
14734;SDS011;7458;49.002;8.472;2023-07-13T05:41:41;1008.75;;;846.05;;
14734;SDS011;7458;49.002;8.472;2023-07-13T05:44:07;1004.35;;;883.90;;
14734;SDS011;7458;49.002;8.472;2023-07-13T05:46:33;999.40;;;878.83;;
14734;SDS011;7458;49.002;8.472;2023-07-13T05:48:59;996.58;;;841.60;;
14734;SDS011;7458;49.002;8.472;2023-07-13T05:51:24;997.30;;;840.63;;
14734;SDS011;7458;49.002;8.472;2023-07-13T05:53:50;1006.85;;;883.22;;
14734;SDS011;7458;49.002;8.472;2023-07-13T05:56:16;1014.45;;;880.40;;
14734;SDS011;7458;49.002;8.472;2023-07-13T05:58:42;1022.17;;;858.55;;
14734;SDS011;7458;49.002;8.472;2023-07-13T06:01:12;1011.63;;;877.35;;
14734;SDS011;7458;49.002;8.472;2023-07-13T06:03:40;1029.78;;;828.97;;
14734;SDS011;7458;49.002;8.472;2023-07-13T06:06:06;1002.58;;;876.30;;
14734;SDS011;7458;49.002;8.472;2023-07-13T06:08:34;1006.85;;;830.03;;
14734;SDS011;7458;49.002;8.472;2023-07-13T06:11:05;1014.08;;;846.10;;
14734;SDS011;7458;49.002;8.472;2023-07-13T06:13:41;1003.17;;;839.88;;
14734;SDS011;7458;49.002;8.472;2023-07-13T06:16:07;1011.17;;;844.83;;
14734;SDS011;7458;49.002;8.472;2023-07-13T06:18:34;1008.38;;;874.80;;
14734;SDS011;7458;49.002;8.472;2023-07-13T06:23:35;1033.70;;;915.58;;
14734;SDS011;7458;49.002;8.472;2023-07-13T06:26:02;1040.60;;;921.63;;
14734;SDS011;7458;49.002;8.472;2023-07-13T06:28:30;1050.15;;;934.78;;
14734;SDS011;7458;49.002;8.472;2023-07-13T06:30:57;1065.28;;;948.85;;
14734;SDS011;7458;49.002;8.472;2023-07-13T06:33:24;1063.85;;;947.90;;
14734;SDS011;7458;49.002;8.472;2023-07-13T06:35:51;1060.75;;;944.75;;
14734;SDS011;7458;49.002;8.472;2023-07-13T06:38:16;1041.50;;;904.67;;
14734;SDS011;7458;49.002;8.472;2023-07-13T06:40:42;1042.90;;;919.97;;
14734;SDS011;7458;49.002;8.472;2023-07-13T06:43:08;1049.20;;;916.10;;
14734;SDS011;7458;49.002;8.472;2023-07-13T06:45:44;1060.80;;;937.03;;
14734;SDS011;7458;49.002;8.472;2023-07-13T06:48:14;1063.80;;;940.00;;
14734;SDS011;7458;49.002;8.472;2023-07-13T06:50:41;1118.65;;;998.35;;
14734;SDS011;7458;49.002;8.472;2023-07-13T06:53:08;1091.35;;;972.05;;
14734;SDS011;7458;49.002;8.472;2023-07-13T06:55:35;1072.68;;;921.40;;
14734;SDS011;7458;49.002;8.472;2023-07-13T06:58:00;1114.10;;;897.47;;
14734;SDS011;7458;49.002;8.472;2023-07-13T07:00:26;1119.97;;;931.38;;
14734;SDS011;7458;49.002;8.472;2023-07-13T07:02:52;1145.47;;;989.38;;
14734;SDS011;7458;49.002;8.472;2023-07-13T07:05:18;1200.60;;;821.38;;
14734;SDS011;7458;49.002;8.472;2023-07-13T07:07:46;1147.82;;;999.90;;
14734;SDS011;7458;49.002;8.472;2023-07-13T07:10:17;1126.70;;;965.00;;
14734;SDS011;7458;49.002;8.472;2023-07-13T07:12:44;1122.88;;;999.08;;
14734;SDS011;7458;49.002;8.472;2023-07-13T07:15:10;1175.53;;;879.75;;
14734;SDS011;7458;49.002;8.472;2023-07-13T07:17:37;1170.20;;;999.90;;
14734;SDS011;7458;49.002;8.472;2023-07-13T07:20:04;1184.03;;;999.90;;
14734;SDS011;7458;49.002;8.472;2023-07-13T07:22:30;1191.32;;;999.90;;
14734;SDS011;7458;49.002;8.472;2023-07-13T07:24:56;1112.65;;;974.30;;
14734;SDS011;7458;49.002;8.472;2023-07-13T07:27:23;1210.78;;;999.90;;
14734;SDS011;7458;49.002;8.472;2023-07-13T07:29:49;1122.30;;;999.72;;
14734;SDS011;7458;49.002;8.472;2023-07-13T07:32:15;1233.60;;;999.90;;
14734;SDS011;7458;49.002;8.472;2023-07-13T07:34:41;1134.25;;;999.90;;
14734;SDS011;7458;49.002;8.472;2023-07-13T07:37:09;1235.05;;;999.90;;
14734;SDS011;7458;49.002;8.472;2023-07-13T07:39:38;1140.78;;;999.90;;
14734;SDS011;7458;49.002;8.472;2023-07-13T07:42:04;1266.97;;;999.90;;
14734;SDS011;7458;49.002;8.472;2023-07-13T07:44:31;1262.22;;;999.90;;
14734;SDS011;7458;49.002;8.472;2023-07-13T07:46:58;1228.18;;;999.90;;
14734;SDS011;7458;49.002;8.472;2023-07-13T07:49:24;1127.15;;;999.90;;
14734;SDS011;7458;49.002;8.472;2023-07-13T07:51:50;1242.00;;;999.90;;
14734;SDS011;7458;49.002;8.472;2023-07-13T07:54:16;1144.57;;;999.90;;
14734;SDS011;7458;49.002;8.472;2023-07-13T07:56:42;1257.13;;;999.90;;
14734;SDS011;7458;49.002;8.472;2023-07-13T07:59:08;1241.25;;;999.90;;
14734;SDS011;7458;49.002;8.472;2023-07-13T08:01:34;1234.15;;;999.90;;
14734;SDS011;7458;49.002;8.472;2023-07-13T08:04:01;1237.72;;;999.90;;
14734;SDS011;7458;49.002;8.472;2023-07-13T08:06:26;1241.88;;;999.90;;
14734;SDS011;7458;49.002;8.472;2023-07-13T08:08:53;1228.75;;;999.90;;
14734;SDS011;7458;49.002;8.472;2023-07-13T08:11:20;1163.20;;;999.90;;
14734;SDS011;7458;49.002;8.472;2023-07-13T08:13:47;1159.07;;;999.90;;
14734;SDS011;7458;49.002;8.472;2023-07-13T08:16:14;1156.18;;;999.90;;
14734;SDS011;7458;49.002;8.472;2023-07-13T08:18:40;1195.90;;;999.90;;
14734;SDS011;7458;49.002;8.472;2023-07-13T08:21:06;1198.03;;;999.90;;
14734;SDS011;7458;49.002;8.472;2023-07-13T08:23:34;1083.78;;;964.47;;
14734;SDS011;7458;49.002;8.472;2023-07-13T08:26:02;1177.90;;;999.90;;
14734;SDS011;7458;49.002;8.472;2023-07-13T08:28:29;1176.57;;;999.90;;
14734;SDS011;7458;49.002;8.472;2023-07-13T08:31:01;1161.22;;;999.90;;
14734;SDS011;7458;49.002;8.472;2023-07-13T08:33:32;1128.10;;;886.00;;
14734;SDS011;7458;49.002;8.472;2023-07-13T08:36:00;1139.13;;;885.35;;
14734;SDS011;7458;49.002;8.472;2023-07-13T08:38:26;1131.60;;;875.88;;
14734;SDS011;7458;49.002;8.472;2023-07-13T08:40:53;1120.60;;;999.65;;
14734;SDS011;7458;49.002;8.472;2023-07-13T08:43:29;1113.07;;;995.55;;
14734;SDS011;7458;49.002;8.472;2023-07-13T08:46:12;1119.68;;;999.17;;
14734;SDS011;7458;49.002;8.472;2023-07-13T08:48:49;1131.13;;;870.58;;
14734;SDS011;7458;49.002;8.472;2023-07-13T08:54:02;1096.38;;;887.88;;
14734;SDS011;7458;49.002;8.472;2023-07-13T08:56:47;1127.13;;;999.90;;
14734;SDS011;7458;49.002;8.472;2023-07-13T08:59:18;1054.13;;;929.70;;
14734;SDS011;7458;49.002;8.472;2023-07-13T09:05:14;1063.20;;;946.70;;
14734;SDS011;7458;49.002;8.472;2023-07-13T09:10:44;1047.60;;;932.25;;
14734;SDS011;7458;49.002;8.472;2023-07-13T09:16:50;1130.03;;;999.90;;
14734;SDS011;7458;49.002;8.472;2023-07-13T09:19:20;1119.32;;;999.90;;
14734;SDS011;7458;49.002;8.472;2023-07-13T09:21:54;1111.70;;;997.13;;
14734;SDS011;7458;49.002;8.472;2023-07-13T09:27:03;1101.72;;;917.47;;
14734;SDS011;7458;49.002;8.472;2023-07-13T09:32:39;1086.28;;;927.15;;
14734;SDS011;7458;49.002;8.472;2023-07-13T09:35:16;1089.60;;;920.83;;
14734;SDS011;7458;49.002;8.472;2023-07-13T09:37:47;1095.45;;;903.20;;
14734;SDS011;7458;49.002;8.472;2023-07-13T09:40:25;1158.85;;;823.97;;
14734;SDS011;7458;49.002;8.472;2023-07-13T09:46:54;1100.38;;;891.38;;
14734;SDS011;7458;49.002;8.472;2023-07-13T09:49:27;1096.82;;;893.20;;
14734;SDS011;7458;49.002;8.472;2023-07-13T09:52:01;1081.55;;;914.75;;
14734;SDS011;7458;49.002;8.472;2023-07-13T09:54:36;1081.30;;;913.90;;
14734;SDS011;7458;49.002;8.472;2023-07-13T09:57:03;1073.30;;;900.28;;
14734;SDS011;7458;49.002;8.472;2023-07-13T09:59:40;1122.30;;;840.03;;
14734;SDS011;7458;49.002;8.472;2023-07-13T10:05:04;1073.65;;;909.92;;
14734;SDS011;7458;49.002;8.472;2023-07-13T10:07:39;1136.85;;;845.53;;
14734;SDS011;7458;49.002;8.472;2023-07-13T10:10:21;1125.28;;;851.63;;
14734;SDS011;7458;49.002;8.472;2023-07-13T10:12:48;1083.75;;;869.55;;
14734;SDS011;7458;49.002;8.472;2023-07-13T10:15:22;1105.45;;;858.72;;
14734;SDS011;7458;49.002;8.472;2023-07-13T10:17:51;1069.30;;;867.75;;
14734;SDS011;7458;49.002;8.472;2023-07-13T10:20:20;1062.45;;;873.92;;
14734;SDS011;7458;49.002;8.472;2023-07-13T10:25:33;1070.40;;;882.03;;
14734;SDS011;7458;49.002;8.472;2023-07-13T10:28:50;1083.90;;;970.33;;
14734;SDS011;7458;49.002;8.472;2023-07-13T10:31:03;1074.38;;;877.50;;
14734;SDS011;7458;49.002;8.472;2023-07-13T10:33:38;1077.97;;;962.92;;
14734;SDS011;7458;49.002;8.472;2023-07-13T10:38:56;1101.22;;;987.72;;
14734;SDS011;7458;49.002;8.472;2023-07-13T10:41:26;1087.13;;;973.50;;
14734;SDS011;7458;49.002;8.472;2023-07-13T10:43:58;1082.32;;;865.53;;
14734;SDS011;7458;49.002;8.472;2023-07-13T10:46:26;1069.28;;;866.78;;
14734;SDS011;7458;49.002;8.472;2023-07-13T10:48:57;1060.55;;;881.95;;
14734;SDS011;7458;49.002;8.472;2023-07-13T10:51:29;1090.53;;;976.55;;
14734;SDS011;7458;49.002;8.472;2023-07-13T10:54:14;1089.70;;;975.42;;
14734;SDS011;7458;49.002;8.472;2023-07-13T10:57:27;1082.18;;;864.95;;
14734;SDS011;7458;49.002;8.472;2023-07-13T11:02:27;1070.18;;;956.13;;
14734;SDS011;7458;49.002;8.472;2023-07-13T11:04:54;1048.43;;;883.40;;
14734;SDS011;7458;49.002;8.472;2023-07-13T11:09:53;1070.90;;;863.45;;
14734;SDS011;7458;49.002;8.472;2023-07-13T11:20:31;1096.50;;;983.38;;
14734;SDS011;7458;49.002;8.472;2023-07-13T11:25:37;1097.80;;;984.72;;
14734;SDS011;7458;49.002;8.472;2023-07-13T11:28:05;1087.22;;;973.97;;
14734;SDS011;7458;49.002;8.472;2023-07-13T11:30:42;1051.82;;;889.58;;
14734;SDS011;7458;49.002;8.472;2023-07-13T11:33:25;1044.55;;;900.88;;
14734;SDS011;7458;49.002;8.472;2023-07-13T11:38:39;1098.60;;;985.80;;
14734;SDS011;7458;49.002;8.472;2023-07-13T11:41:23;1100.90;;;987.92;;
14734;SDS011;7458;49.002;8.472;2023-07-13T11:44:01;1039.20;;;924.13;;
14734;SDS011;7458;49.002;8.472;2023-07-13T11:46:44;1047.18;;;889.13;;
14734;SDS011;7458;49.002;8.472;2023-07-13T11:49:16;1083.15;;;969.13;;
14734;SDS011;7458;49.002;8.472;2023-07-13T11:51:45;1080.38;;;967.63;;
14734;SDS011;7458;49.002;8.472;2023-07-13T11:54:28;1063.85;;;893.03;;
14734;SDS011;7458;49.002;8.472;2023-07-13T11:57:02;1051.35;;;897.55;;
14734;SDS011;7458;49.002;8.472;2023-07-13T11:59:52;1043.75;;;884.40;;
14734;SDS011;7458;49.002;8.472;2023-07-13T12:02:42;1043.32;;;899.53;;
14734;SDS011;7458;49.002;8.472;2023-07-13T12:05:11;1042.28;;;927.65;;
14734;SDS011;7458;49.002;8.472;2023-07-13T12:07:42;1117.53;;;999.70;;
14734;SDS011;7458;49.002;8.472;2023-07-13T12:12:51;1058.43;;;941.78;;
14734;SDS011;7458;49.002;8.472;2023-07-13T12:15:21;1138.82;;;808.20;;
14734;SDS011;7458;49.002;8.472;2023-07-13T12:17:52;1073.53;;;897.40;;
14734;SDS011;7458;49.002;8.472;2023-07-13T12:20:21;1079.47;;;892.10;;
14734;SDS011;7458;49.002;8.472;2023-07-13T12:23:05;1055.35;;;940.50;;
14734;SDS011;7458;49.002;8.472;2023-07-13T12:25:46;1060.72;;;947.25;;
14734;SDS011;7458;49.002;8.472;2023-07-13T12:28:22;1045.53;;;867.95;;
14734;SDS011;7458;49.002;8.472;2023-07-13T12:30:59;1064.40;;;953.38;;
14734;SDS011;7458;49.002;8.472;2023-07-13T12:33:32;1036.50;;;922.20;;
14734;SDS011;7458;49.002;8.472;2023-07-13T12:36:00;1047.82;;;931.85;;
14734;SDS011;7458;49.002;8.472;2023-07-13T12:38:30;1039.03;;;888.38;;
14734;SDS011;7458;49.002;8.472;2023-07-13T12:40:57;1057.40;;;873.13;;
14734;SDS011;7458;49.002;8.472;2023-07-13T12:43:26;1065.57;;;875.15;;
14734;SDS011;7458;49.002;8.472;2023-07-13T12:46:01;1050.00;;;877.70;;
14734;SDS011;7458;49.002;8.472;2023-07-13T12:48:37;1075.68;;;963.17;;
14734;SDS011;7458;49.002;8.472;2023-07-13T12:51:08;1029.35;;;896.10;;
14734;SDS011;7458;49.002;8.472;2023-07-13T12:53:41;1035.68;;;896.15;;
14734;SDS011;7458;49.002;8.472;2023-07-13T12:56:16;1078.97;;;966.22;;
14734;SDS011;7458;49.002;8.472;2023-07-13T12:58:47;1077.70;;;965.33;;
14734;SDS011;7458;49.002;8.472;2023-07-13T13:01:19;1069.97;;;957.63;;
14734;SDS011;7458;49.002;8.472;2023-07-13T13:03:51;1044.90;;;858.58;;
14734;SDS011;7458;49.002;8.472;2023-07-13T13:06:21;1078.00;;;965.20;;
14734;SDS011;7458;49.002;8.472;2023-07-13T13:08:56;1069.53;;;957.50;;
14734;SDS011;7458;49.002;8.472;2023-07-13T13:11:24;1027.78;;;891.30;;
14734;SDS011;7458;49.002;8.472;2023-07-13T13:13:52;1063.63;;;951.25;;
14734;SDS011;7458;49.002;8.472;2023-07-13T13:18:51;1072.93;;;959.78;;
14734;SDS011;7458;49.002;8.472;2023-07-13T13:21:23;1072.35;;;958.97;;
14734;SDS011;7458;49.002;8.472;2023-07-13T13:23:50;1047.32;;;871.45;;
14734;SDS011;7458;49.002;8.472;2023-07-13T13:26:18;1059.40;;;873.67;;
14734;SDS011;7458;49.002;8.472;2023-07-13T13:28:45;1048.22;;;876.13;;
14734;SDS011;7458;49.002;8.472;2023-07-13T13:31:13;1058.25;;;945.05;;
14734;SDS011;7458;49.002;8.472;2023-07-13T13:33:43;1055.32;;;874.75;;
14734;SDS011;7458;49.002;8.472;2023-07-13T13:36:15;1065.40;;;952.33;;
14734;SDS011;7458;49.002;8.472;2023-07-13T13:38:43;1048.68;;;876.88;;
14734;SDS011;7458;49.002;8.472;2023-07-13T13:41:09;1045.15;;;889.42;;
14734;SDS011;7458;49.002;8.472;2023-07-13T13:43:38;1037.93;;;882.75;;
14734;SDS011;7458;49.002;8.472;2023-07-13T13:46:16;1079.03;;;964.80;;
14734;SDS011;7458;49.002;8.472;2023-07-13T13:48:47;1071.45;;;957.78;;
14734;SDS011;7458;49.002;8.472;2023-07-13T13:51:21;1033.80;;;903.85;;
14734;SDS011;7458;49.002;8.472;2023-07-13T13:53:49;1040.65;;;879.55;;
14734;SDS011;7458;49.002;8.472;2023-07-13T13:56:15;1071.53;;;958.42;;
14734;SDS011;7458;49.002;8.472;2023-07-13T13:58:44;1035.88;;;883.35;;
14734;SDS011;7458;49.002;8.472;2023-07-13T14:01:20;1070.78;;;957.35;;
14734;SDS011;7458;49.002;8.472;2023-07-13T14:03:49;1054.75;;;941.70;;
14734;SDS011;7458;49.002;8.472;2023-07-13T14:06:18;1063.43;;;949.92;;
14734;SDS011;7458;49.002;8.472;2023-07-13T14:08:45;1040.80;;;884.88;;
14734;SDS011;7458;49.002;8.472;2023-07-13T14:11:16;1063.78;;;950.90;;
14734;SDS011;7458;49.002;8.472;2023-07-13T14:13:49;1080.72;;;860.35;;
14734;SDS011;7458;49.002;8.472;2023-07-13T14:16:21;1107.20;;;851.17;;
14734;SDS011;7458;49.002;8.472;2023-07-13T14:18:53;1130.70;;;884.75;;
14734;SDS011;7458;49.002;8.472;2023-07-13T14:21:21;1201.93;;;801.80;;
14734;SDS011;7458;49.002;8.472;2023-07-13T14:23:48;1200.90;;;778.42;;
14734;SDS011;7458;49.002;8.472;2023-07-13T14:26:16;1195.32;;;769.97;;
14734;SDS011;7458;49.002;8.472;2023-07-13T14:28:47;1191.68;;;771.45;;
14734;SDS011;7458;49.002;8.472;2023-07-13T14:31:16;1110.35;;;837.72;;
14734;SDS011;7458;49.002;8.472;2023-07-13T14:33:43;1182.32;;;778.38;;
14734;SDS011;7458;49.002;8.472;2023-07-13T14:39:14;1175.85;;;782.75;;
14734;SDS011;7458;49.002;8.472;2023-07-13T14:41:49;1163.53;;;789.72;;
14734;SDS011;7458;49.002;8.472;2023-07-13T14:44:21;1105.78;;;845.03;;
14734;SDS011;7458;49.002;8.472;2023-07-13T14:46:50;1099.05;;;861.05;;
14734;SDS011;7458;49.002;8.472;2023-07-13T14:52:12;1168.20;;;796.88;;
14734;SDS011;7458;49.002;8.472;2023-07-13T14:54:47;1155.72;;;803.25;;
14734;SDS011;7458;49.002;8.472;2023-07-13T14:57:17;1093.63;;;858.97;;
14734;SDS011;7458;49.002;8.472;2023-07-13T14:59:45;1162.90;;;786.13;;
14734;SDS011;7458;49.002;8.472;2023-07-13T15:02:27;1099.95;;;872.13;;
14734;SDS011;7458;49.002;8.472;2023-07-13T15:04:59;1093.43;;;859.25;;
14734;SDS011;7458;49.002;8.472;2023-07-13T15:07:25;1170.30;;;793.95;;
14734;SDS011;7458;49.002;8.472;2023-07-13T15:09:51;1100.15;;;865.22;;
14734;SDS011;7458;49.002;8.472;2023-07-13T15:12:17;1103.22;;;876.20;;
14734;SDS011;7458;49.002;8.472;2023-07-13T15:14:45;1097.90;;;867.55;;